TFM - Tactical Decision Aid (Experimental) INFO Settings
ID: Runway Winds: CIG/VIS Threshold: METAR Board: Map:

KATL - Atlanta-Hartsfield Jackson Intl

Updated at: 0258 UTC 25 May 2017
Latest TAF at: 0130 UTC 25 May 2017

TAF Board

Time0252Z25/03Z25/04Z25/05Z25/06Z25/07Z25/08Z25/09Z25/10Z25/11Z25/12Z25/13Z25/14Z25/15Z
TypeOBSPRVLPRVLPRVLPRVLPRVLPRVLPRVLPRVLPRVLPRVLPRVLPRVLPRVL
VIS10>6>6>6>6>6>6>6>6>6>6>6>6>6
CIG--9090909090151515151515----
CoverFEWBKNBKNBKNBKNBKNBKNBKNBKNBKNBKNBKNSCTSCT
FltCatVFRVFRVFRVFRVFRVFRMVFRMVFRMVFRMVFRMVFRMVFRVFRVFR
WX------------VCSHVCSHVCSHVCSHVCSHVCSH----
WDir290280280280280280270270270270270270270270
WSpd812121212129999991212
WGst------------------------2222
TAF
KATL 250130Z 2502/2606 28012KT P6SM SCT045 BKN090
  FM250800 27009KT P6SM VCSH BKN015 BKN050
  FM251400 27012G22KT P6SM SCT030
  FM251800 27014G24KT P6SM SCT040
  FM260000 27008KT P6SM FEW045


METAR
KATL 250252Z 29008KT 10SM FEW090 17/11 A2958 RMK AO2 SLP010 T01670111 51022
KATL 250152Z 30011G19KT 10SM FEW065 SCT090 18/10 A2956 RMK AO2 SLP004 T01780100

TAF/METAR Board Legend

Potential Impact
  None Marginal Slight Moderate High
Visibility (sm) >5 3≤X≤5 1≤X<3 0.5≤X<1 <0.5
Ceiling (100 ft) >30 10≤X≤30 4≤X<10 2≤X<4 <2
Wind Speed (kt) <10 10≤X<20 20≤X<30 ≥30
Wind Gust (kt) <15 15≤X<25 25≤X<35 ≥35
Weather No Wx Reported VCTS -TS,-FZRA TS,FZRA +TS,+FZRA



Page loaded:  02:58 UTC  |   07:58 PM Pacific  |   08:58 PM Mountain  |   09:58 PM Central  |   10:58 PM Eastern

 

ADVISORIES

FORECASTS

FORECASTS

OBSERVATIONS

USER TOOLS

ABOUT US